sensor_id;sensor_type;location;lat;lon;timestamp;P1;durP1;ratioP1;P2;durP2;ratioP2
21420;SDS011;10871;50.144;8.428;2022-11-20T00:02:25;44.95;;;22.90;;
21420;SDS011;10871;50.144;8.428;2022-11-20T00:04:51;43.17;;;21.63;;
21420;SDS011;10871;50.144;8.428;2022-11-20T00:07:17;42.47;;;22.45;;
21420;SDS011;10871;50.144;8.428;2022-11-20T00:09:44;39.28;;;20.95;;
21420;SDS011;10871;50.144;8.428;2022-11-20T00:12:10;41.47;;;21.80;;
21420;SDS011;10871;50.144;8.428;2022-11-20T00:14:36;39.00;;;21.83;;
21420;SDS011;10871;50.144;8.428;2022-11-20T00:17:03;44.92;;;23.35;;
21420;SDS011;10871;50.144;8.428;2022-11-20T00:19:29;44.35;;;23.45;;
21420;SDS011;10871;50.144;8.428;2022-11-20T00:21:56;43.60;;;22.65;;
21420;SDS011;10871;50.144;8.428;2022-11-20T00:24:22;39.50;;;21.38;;
21420;SDS011;10871;50.144;8.428;2022-11-20T00:26:48;42.72;;;22.05;;
21420;SDS011;10871;50.144;8.428;2022-11-20T00:29:15;40.30;;;21.75;;
21420;SDS011;10871;50.144;8.428;2022-11-20T00:31:41;43.60;;;23.65;;
21420;SDS011;10871;50.144;8.428;2022-11-20T00:34:08;40.58;;;22.20;;
21420;SDS011;10871;50.144;8.428;2022-11-20T00:36:35;40.75;;;22.35;;
21420;SDS011;10871;50.144;8.428;2022-11-20T00:39:01;42.40;;;22.45;;
21420;SDS011;10871;50.144;8.428;2022-11-20T00:41:28;38.30;;;21.05;;
21420;SDS011;10871;50.144;8.428;2022-11-20T00:43:55;41.40;;;22.73;;
21420;SDS011;10871;50.144;8.428;2022-11-20T00:46:22;44.13;;;22.40;;
21420;SDS011;10871;50.144;8.428;2022-11-20T00:48:49;40.55;;;21.75;;
21420;SDS011;10871;50.144;8.428;2022-11-20T00:51:16;43.53;;;22.70;;
21420;SDS011;10871;50.144;8.428;2022-11-20T00:53:43;38.95;;;22.13;;
21420;SDS011;10871;50.144;8.428;2022-11-20T00:56:11;43.92;;;23.15;;
21420;SDS011;10871;50.144;8.428;2022-11-20T00:58:39;46.25;;;23.17;;
21420;SDS011;10871;50.144;8.428;2022-11-20T01:03:37;47.55;;;24.02;;
21420;SDS011;10871;50.144;8.428;2022-11-20T01:06:05;47.03;;;23.48;;
21420;SDS011;10871;50.144;8.428;2022-11-20T01:08:32;48.72;;;24.48;;
21420;SDS011;10871;50.144;8.428;2022-11-20T01:11:00;49.45;;;24.65;;
21420;SDS011;10871;50.144;8.428;2022-11-20T01:13:28;47.03;;;24.35;;
21420;SDS011;10871;50.144;8.428;2022-11-20T01:18:29;52.50;;;25.08;;
21420;SDS011;10871;50.144;8.428;2022-11-20T01:20:59;45.83;;;23.90;;
21420;SDS011;10871;50.144;8.428;2022-11-20T01:23:26;49.28;;;24.38;;
21420;SDS011;10871;50.144;8.428;2022-11-20T01:25:52;52.38;;;24.63;;
21420;SDS011;10871;50.144;8.428;2022-11-20T01:28:18;49.30;;;25.30;;
21420;SDS011;10871;50.144;8.428;2022-11-20T01:30:45;52.20;;;26.13;;
21420;SDS011;10871;50.144;8.428;2022-11-20T01:33:11;53.35;;;25.98;;
21420;SDS011;10871;50.144;8.428;2022-11-20T01:35:37;52.38;;;25.42;;
21420;SDS011;10871;50.144;8.428;2022-11-20T01:38:04;49.97;;;23.83;;
21420;SDS011;10871;50.144;8.428;2022-11-20T01:40:30;52.65;;;26.10;;
21420;SDS011;10871;50.144;8.428;2022-11-20T01:43:04;52.50;;;26.58;;
21420;SDS011;10871;50.144;8.428;2022-11-20T01:48:17;57.35;;;26.40;;
21420;SDS011;10871;50.144;8.428;2022-11-20T01:50:44;53.88;;;25.77;;
21420;SDS011;10871;50.144;8.428;2022-11-20T01:53:11;55.88;;;26.48;;
21420;SDS011;10871;50.144;8.428;2022-11-20T01:55:39;55.15;;;26.85;;
21420;SDS011;10871;50.144;8.428;2022-11-20T01:58:07;53.80;;;26.58;;
21420;SDS011;10871;50.144;8.428;2022-11-20T02:00:34;52.90;;;25.88;;
21420;SDS011;10871;50.144;8.428;2022-11-20T02:03:02;54.70;;;26.65;;
21420;SDS011;10871;50.144;8.428;2022-11-20T02:08:05;54.03;;;27.10;;
21420;SDS011;10871;50.144;8.428;2022-11-20T02:10:31;55.05;;;26.63;;
21420;SDS011;10871;50.144;8.428;2022-11-20T02:12:58;56.80;;;27.80;;
21420;SDS011;10871;50.144;8.428;2022-11-20T02:15:43;52.75;;;26.20;;
21420;SDS011;10871;50.144;8.428;2022-11-20T02:18:11;52.47;;;26.23;;
21420;SDS011;10871;50.144;8.428;2022-11-20T02:20:38;53.22;;;26.77;;
21420;SDS011;10871;50.144;8.428;2022-11-20T02:23:07;53.30;;;25.90;;
21420;SDS011;10871;50.144;8.428;2022-11-20T02:25:34;51.63;;;24.80;;
21420;SDS011;10871;50.144;8.428;2022-11-20T02:28:01;54.08;;;26.27;;
21420;SDS011;10871;50.144;8.428;2022-11-20T02:30:28;54.22;;;26.50;;
21420;SDS011;10871;50.144;8.428;2022-11-20T02:32:54;58.83;;;25.52;;
21420;SDS011;10871;50.144;8.428;2022-11-20T02:37:47;51.70;;;25.02;;
21420;SDS011;10871;50.144;8.428;2022-11-20T02:40:14;51.25;;;26.52;;
21420;SDS011;10871;50.144;8.428;2022-11-20T02:42:40;56.70;;;27.08;;
21420;SDS011;10871;50.144;8.428;2022-11-20T02:45:07;57.72;;;27.38;;
21420;SDS011;10871;50.144;8.428;2022-11-20T02:47:33;58.45;;;27.40;;
21420;SDS011;10871;50.144;8.428;2022-11-20T02:50:00;58.45;;;28.33;;
21420;SDS011;10871;50.144;8.428;2022-11-20T02:52:26;60.00;;;26.52;;
21420;SDS011;10871;50.144;8.428;2022-11-20T02:54:52;59.15;;;27.80;;
21420;SDS011;10871;50.144;8.428;2022-11-20T02:57:19;58.53;;;27.65;;
21420;SDS011;10871;50.144;8.428;2022-11-20T02:59:45;54.65;;;26.80;;
21420;SDS011;10871;50.144;8.428;2022-11-20T03:02:11;66.13;;;28.20;;
21420;SDS011;10871;50.144;8.428;2022-11-20T03:04:38;59.60;;;27.00;;
21420;SDS011;10871;50.144;8.428;2022-11-20T03:07:04;58.95;;;26.60;;
21420;SDS011;10871;50.144;8.428;2022-11-20T03:09:30;61.75;;;28.42;;
21420;SDS011;10871;50.144;8.428;2022-11-20T03:11:57;61.47;;;27.48;;
21420;SDS011;10871;50.144;8.428;2022-11-20T03:14:23;62.58;;;27.80;;
21420;SDS011;10871;50.144;8.428;2022-11-20T03:16:50;61.72;;;27.58;;
21420;SDS011;10871;50.144;8.428;2022-11-20T03:19:16;60.47;;;27.42;;
21420;SDS011;10871;50.144;8.428;2022-11-20T03:21:42;58.30;;;26.60;;
21420;SDS011;10871;50.144;8.428;2022-11-20T03:24:09;62.38;;;28.08;;
21420;SDS011;10871;50.144;8.428;2022-11-20T03:26:35;60.42;;;27.38;;
21420;SDS011;10871;50.144;8.428;2022-11-20T03:29:02;59.35;;;27.15;;
21420;SDS011;10871;50.144;8.428;2022-11-20T03:31:30;62.92;;;27.80;;
21420;SDS011;10871;50.144;8.428;2022-11-20T03:33:57;58.60;;;27.48;;
21420;SDS011;10871;50.144;8.428;2022-11-20T03:36:24;58.15;;;27.00;;
21420;SDS011;10871;50.144;8.428;2022-11-20T03:38:52;60.70;;;27.05;;
21420;SDS011;10871;50.144;8.428;2022-11-20T03:41:23;61.25;;;27.58;;
21420;SDS011;10871;50.144;8.428;2022-11-20T03:43:56;59.63;;;28.25;;
21420;SDS011;10871;50.144;8.428;2022-11-20T03:46:23;59.78;;;27.95;;
21420;SDS011;10871;50.144;8.428;2022-11-20T03:48:49;59.38;;;27.27;;
21420;SDS011;10871;50.144;8.428;2022-11-20T03:51:18;61.22;;;28.15;;
21420;SDS011;10871;50.144;8.428;2022-11-20T03:53:45;62.03;;;28.02;;
21420;SDS011;10871;50.144;8.428;2022-11-20T03:56:13;68.20;;;28.98;;
21420;SDS011;10871;50.144;8.428;2022-11-20T03:58:40;67.65;;;30.17;;
21420;SDS011;10871;50.144;8.428;2022-11-20T04:01:11;69.97;;;29.83;;
21420;SDS011;10871;50.144;8.428;2022-11-20T04:03:38;63.40;;;28.95;;
21420;SDS011;10871;50.144;8.428;2022-11-20T04:06:05;67.00;;;28.88;;
21420;SDS011;10871;50.144;8.428;2022-11-20T04:08:31;67.03;;;29.13;;
21420;SDS011;10871;50.144;8.428;2022-11-20T04:11:07;71.68;;;30.58;;
21420;SDS011;10871;50.144;8.428;2022-11-20T04:13:34;66.10;;;30.08;;
21420;SDS011;10871;50.144;8.428;2022-11-20T04:16:00;68.65;;;29.75;;
21420;SDS011;10871;50.144;8.428;2022-11-20T04:18:27;69.45;;;29.80;;
21420;SDS011;10871;50.144;8.428;2022-11-20T04:20:53;67.68;;;30.00;;
21420;SDS011;10871;50.144;8.428;2022-11-20T04:23:19;66.80;;;29.48;;
21420;SDS011;10871;50.144;8.428;2022-11-20T04:25:52;68.55;;;30.92;;
21420;SDS011;10871;50.144;8.428;2022-11-20T04:28:19;70.80;;;30.00;;
21420;SDS011;10871;50.144;8.428;2022-11-20T04:30:46;74.13;;;32.33;;
21420;SDS011;10871;50.144;8.428;2022-11-20T04:33:12;74.55;;;30.92;;
21420;SDS011;10871;50.144;8.428;2022-11-20T04:35:38;74.03;;;31.08;;
21420;SDS011;10871;50.144;8.428;2022-11-20T04:38:05;76.63;;;31.48;;
21420;SDS011;10871;50.144;8.428;2022-11-20T04:40:31;77.07;;;30.88;;
21420;SDS011;10871;50.144;8.428;2022-11-20T04:42:58;68.85;;;30.52;;
21420;SDS011;10871;50.144;8.428;2022-11-20T04:45:24;78.45;;;31.05;;
21420;SDS011;10871;50.144;8.428;2022-11-20T04:47:50;76.68;;;30.23;;
21420;SDS011;10871;50.144;8.428;2022-11-20T04:50:17;76.25;;;30.45;;
21420;SDS011;10871;50.144;8.428;2022-11-20T04:52:43;69.95;;;29.52;;
21420;SDS011;10871;50.144;8.428;2022-11-20T04:55:09;76.55;;;31.45;;
21420;SDS011;10871;50.144;8.428;2022-11-20T04:57:36;79.53;;;31.70;;
21420;SDS011;10871;50.144;8.428;2022-11-20T05:00:02;84.22;;;30.45;;
21420;SDS011;10871;50.144;8.428;2022-11-20T05:02:30;77.78;;;31.45;;
21420;SDS011;10871;50.144;8.428;2022-11-20T05:04:56;83.55;;;31.77;;
21420;SDS011;10871;50.144;8.428;2022-11-20T05:07:23;76.32;;;31.25;;
21420;SDS011;10871;50.144;8.428;2022-11-20T05:09:49;84.60;;;31.38;;
21420;SDS011;10871;50.144;8.428;2022-11-20T05:12:16;84.97;;;32.05;;
21420;SDS011;10871;50.144;8.428;2022-11-20T05:14:42;79.80;;;30.48;;
21420;SDS011;10871;50.144;8.428;2022-11-20T05:17:11;90.53;;;32.45;;
21420;SDS011;10871;50.144;8.428;2022-11-20T05:19:38;92.93;;;31.90;;
21420;SDS011;10871;50.144;8.428;2022-11-20T05:22:04;86.38;;;32.42;;
21420;SDS011;10871;50.144;8.428;2022-11-20T05:24:31;87.97;;;31.85;;
21420;SDS011;10871;50.144;8.428;2022-11-20T05:26:57;90.75;;;32.75;;
21420;SDS011;10871;50.144;8.428;2022-11-20T05:29:24;90.38;;;31.92;;
21420;SDS011;10871;50.144;8.428;2022-11-20T05:31:50;81.55;;;30.70;;
21420;SDS011;10871;50.144;8.428;2022-11-20T05:34:16;91.95;;;32.58;;
21420;SDS011;10871;50.144;8.428;2022-11-20T05:36:43;90.93;;;31.67;;
21420;SDS011;10871;50.144;8.428;2022-11-20T05:39:09;94.45;;;32.85;;
21420;SDS011;10871;50.144;8.428;2022-11-20T05:41:35;99.55;;;32.22;;
21420;SDS011;10871;50.144;8.428;2022-11-20T05:44:02;90.50;;;31.58;;
21420;SDS011;10871;50.144;8.428;2022-11-20T05:46:28;92.03;;;32.20;;
21420;SDS011;10871;50.144;8.428;2022-11-20T05:48:55;91.30;;;32.33;;
21420;SDS011;10871;50.144;8.428;2022-11-20T05:51:22;95.32;;;31.63;;
21420;SDS011;10871;50.144;8.428;2022-11-20T05:53:49;83.93;;;30.90;;
21420;SDS011;10871;50.144;8.428;2022-11-20T05:56:16;84.78;;;28.90;;
21420;SDS011;10871;50.144;8.428;2022-11-20T05:58:43;77.85;;;29.45;;
21420;SDS011;10871;50.144;8.428;2022-11-20T06:01:14;83.45;;;30.05;;
21420;SDS011;10871;50.144;8.428;2022-11-20T06:03:41;72.13;;;27.15;;
21420;SDS011;10871;50.144;8.428;2022-11-20T06:06:15;76.57;;;27.40;;
21420;SDS011;10871;50.144;8.428;2022-11-20T06:08:42;77.82;;;27.15;;
21420;SDS011;10871;50.144;8.428;2022-11-20T06:11:09;76.80;;;26.27;;
21420;SDS011;10871;50.144;8.428;2022-11-20T06:13:36;75.68;;;27.27;;
21420;SDS011;10871;50.144;8.428;2022-11-20T06:16:07;82.32;;;26.98;;
21420;SDS011;10871;50.144;8.428;2022-11-20T06:18:33;81.78;;;27.92;;
21420;SDS011;10871;50.144;8.428;2022-11-20T06:21:01;79.47;;;27.65;;
21420;SDS011;10871;50.144;8.428;2022-11-20T06:23:28;72.10;;;26.85;;
21420;SDS011;10871;50.144;8.428;2022-11-20T06:25:54;74.53;;;26.20;;
21420;SDS011;10871;50.144;8.428;2022-11-20T06:28:21;76.15;;;26.88;;
21420;SDS011;10871;50.144;8.428;2022-11-20T06:30:48;81.38;;;27.40;;
21420;SDS011;10871;50.144;8.428;2022-11-20T06:33:14;86.55;;;28.92;;
21420;SDS011;10871;50.144;8.428;2022-11-20T06:35:40;75.72;;;26.67;;
21420;SDS011;10871;50.144;8.428;2022-11-20T06:38:07;109.47;;;29.67;;
21420;SDS011;10871;50.144;8.428;2022-11-20T06:40:33;91.78;;;29.35;;
21420;SDS011;10871;50.144;8.428;2022-11-20T06:42:59;84.43;;;28.20;;
21420;SDS011;10871;50.144;8.428;2022-11-20T06:45:26;78.38;;;28.70;;
21420;SDS011;10871;50.144;8.428;2022-11-20T06:47:52;92.13;;;29.52;;
21420;SDS011;10871;50.144;8.428;2022-11-20T06:50:19;82.15;;;28.75;;
21420;SDS011;10871;50.144;8.428;2022-11-20T06:52:45;80.68;;;26.77;;
21420;SDS011;10871;50.144;8.428;2022-11-20T06:55:11;81.70;;;26.65;;
21420;SDS011;10871;50.144;8.428;2022-11-20T06:57:38;77.50;;;26.77;;
21420;SDS011;10871;50.144;8.428;2022-11-20T07:00:04;79.63;;;27.35;;
21420;SDS011;10871;50.144;8.428;2022-11-20T07:02:30;73.00;;;27.23;;
21420;SDS011;10871;50.144;8.428;2022-11-20T07:04:57;75.90;;;26.00;;
21420;SDS011;10871;50.144;8.428;2022-11-20T07:07:23;72.60;;;25.77;;
21420;SDS011;10871;50.144;8.428;2022-11-20T07:09:49;74.28;;;25.58;;
21420;SDS011;10871;50.144;8.428;2022-11-20T07:12:16;64.22;;;23.67;;
21420;SDS011;10871;50.144;8.428;2022-11-20T07:14:42;56.40;;;21.65;;
21420;SDS011;10871;50.144;8.428;2022-11-20T07:17:09;56.50;;;22.52;;
21420;SDS011;10871;50.144;8.428;2022-11-20T07:19:35;60.03;;;22.13;;
21420;SDS011;10871;50.144;8.428;2022-11-20T07:22:01;64.50;;;23.02;;
21420;SDS011;10871;50.144;8.428;2022-11-20T07:24:28;65.20;;;23.08;;
21420;SDS011;10871;50.144;8.428;2022-11-20T07:26:54;57.20;;;20.95;;
21420;SDS011;10871;50.144;8.428;2022-11-20T07:29:20;65.60;;;23.08;;
21420;SDS011;10871;50.144;8.428;2022-11-20T07:31:47;76.20;;;24.33;;
21420;SDS011;10871;50.144;8.428;2022-11-20T07:34:13;191.23;;;28.73;;
21420;SDS011;10871;50.144;8.428;2022-11-20T07:36:39;59.58;;;24.23;;
21420;SDS011;10871;50.144;8.428;2022-11-20T07:39:06;68.38;;;27.52;;
21420;SDS011;10871;50.144;8.428;2022-11-20T07:41:32;52.53;;;22.52;;
21420;SDS011;10871;50.144;8.428;2022-11-20T07:43:59;57.42;;;24.48;;
21420;SDS011;10871;50.144;8.428;2022-11-20T07:46:25;54.25;;;22.67;;
21420;SDS011;10871;50.144;8.428;2022-11-20T07:48:52;56.03;;;23.25;;
21420;SDS011;10871;50.144;8.428;2022-11-20T07:51:18;56.65;;;22.65;;
21420;SDS011;10871;50.144;8.428;2022-11-20T07:53:45;49.78;;;22.65;;
21420;SDS011;10871;50.144;8.428;2022-11-20T07:56:11;49.35;;;20.25;;
21420;SDS011;10871;50.144;8.428;2022-11-20T07:58:37;52.03;;;21.58;;
21420;SDS011;10871;50.144;8.428;2022-11-20T08:01:07;51.20;;;22.00;;
21420;SDS011;10871;50.144;8.428;2022-11-20T08:03:34;55.10;;;23.13;;
21420;SDS011;10871;50.144;8.428;2022-11-20T08:06:00;49.03;;;22.08;;
21420;SDS011;10871;50.144;8.428;2022-11-20T08:08:27;53.70;;;22.48;;
21420;SDS011;10871;50.144;8.428;2022-11-20T08:10:58;47.08;;;20.85;;
21420;SDS011;10871;50.144;8.428;2022-11-20T08:13:45;48.00;;;21.38;;
21420;SDS011;10871;50.144;8.428;2022-11-20T08:16:30;62.33;;;23.67;;
21420;SDS011;10871;50.144;8.428;2022-11-20T08:18:56;56.45;;;24.33;;
21420;SDS011;10871;50.144;8.428;2022-11-20T08:21:23;57.92;;;24.23;;
21420;SDS011;10871;50.144;8.428;2022-11-20T08:23:50;56.35;;;23.50;;
21420;SDS011;10871;50.144;8.428;2022-11-20T08:26:16;55.60;;;23.45;;
21420;SDS011;10871;50.144;8.428;2022-11-20T08:28:42;58.67;;;24.67;;
21420;SDS011;10871;50.144;8.428;2022-11-20T08:31:10;55.53;;;23.98;;
21420;SDS011;10871;50.144;8.428;2022-11-20T08:33:36;56.28;;;24.17;;
21420;SDS011;10871;50.144;8.428;2022-11-20T08:36:02;55.88;;;23.70;;
21420;SDS011;10871;50.144;8.428;2022-11-20T08:38:29;53.67;;;22.23;;
21420;SDS011;10871;50.144;8.428;2022-11-20T08:40:59;51.67;;;23.77;;
21420;SDS011;10871;50.144;8.428;2022-11-20T08:43:45;48.47;;;21.60;;
21420;SDS011;10871;50.144;8.428;2022-11-20T08:46:11;42.05;;;20.17;;
21420;SDS011;10871;50.144;8.428;2022-11-20T08:48:37;39.50;;;18.20;;
21420;SDS011;10871;50.144;8.428;2022-11-20T08:51:04;38.40;;;17.42;;
21420;SDS011;10871;50.144;8.428;2022-11-20T08:53:30;38.40;;;17.27;;
21420;SDS011;10871;50.144;8.428;2022-11-20T08:55:57;37.55;;;17.27;;
21420;SDS011;10871;50.144;8.428;2022-11-20T08:58:24;37.20;;;16.77;;
21420;SDS011;10871;50.144;8.428;2022-11-20T09:00:51;37.38;;;16.60;;
21420;SDS011;10871;50.144;8.428;2022-11-20T09:03:17;34.92;;;16.67;;
21420;SDS011;10871;50.144;8.428;2022-11-20T09:05:44;33.78;;;16.80;;
21420;SDS011;10871;50.144;8.428;2022-11-20T09:08:10;35.00;;;16.70;;
21420;SDS011;10871;50.144;8.428;2022-11-20T09:10:36;35.35;;;17.15;;
21420;SDS011;10871;50.144;8.428;2022-11-20T09:13:05;31.38;;;16.92;;
21420;SDS011;10871;50.144;8.428;2022-11-20T09:15:32;31.10;;;17.30;;
21420;SDS011;10871;50.144;8.428;2022-11-20T09:17:59;32.78;;;15.88;;
21420;SDS011;10871;50.144;8.428;2022-11-20T09:20:26;30.60;;;17.50;;
21420;SDS011;10871;50.144;8.428;2022-11-20T09:22:54;28.13;;;16.00;;
21420;SDS011;10871;50.144;8.428;2022-11-20T09:25:21;25.02;;;14.77;;
21420;SDS011;10871;50.144;8.428;2022-11-20T09:27:47;25.35;;;15.48;;
21420;SDS011;10871;50.144;8.428;2022-11-20T09:30:14;27.58;;;14.85;;
21420;SDS011;10871;50.144;8.428;2022-11-20T09:32:41;22.45;;;13.90;;
21420;SDS011;10871;50.144;8.428;2022-11-20T09:35:08;21.23;;;12.90;;
21420;SDS011;10871;50.144;8.428;2022-11-20T09:37:34;21.58;;;13.45;;
21420;SDS011;10871;50.144;8.428;2022-11-20T09:40:01;18.95;;;13.15;;
21420;SDS011;10871;50.144;8.428;2022-11-20T09:42:38;19.50;;;12.30;;
21420;SDS011;10871;50.144;8.428;2022-11-20T09:45:23;18.88;;;12.80;;
21420;SDS011;10871;50.144;8.428;2022-11-20T09:50:36;21.50;;;13.52;;
21420;SDS011;10871;50.144;8.428;2022-11-20T09:53:08;20.63;;;12.55;;
21420;SDS011;10871;50.144;8.428;2022-11-20T09:55:37;20.45;;;13.18;;
21420;SDS011;10871;50.144;8.428;2022-11-20T09:58:07;21.00;;;13.10;;
21420;SDS011;10871;50.144;8.428;2022-11-20T10:00:39;24.35;;;14.43;;
21420;SDS011;10871;50.144;8.428;2022-11-20T10:05:45;23.88;;;14.07;;
21420;SDS011;10871;50.144;8.428;2022-11-20T10:10:43;25.05;;;14.43;;
21420;SDS011;10871;50.144;8.428;2022-11-20T10:18:40;22.20;;;14.07;;
21420;SDS011;10871;50.144;8.428;2022-11-20T10:21:09;21.73;;;13.23;;
21420;SDS011;10871;50.144;8.428;2022-11-20T10:26:17;21.92;;;13.82;;
21420;SDS011;10871;50.144;8.428;2022-11-20T10:31:28;21.83;;;13.88;;
21420;SDS011;10871;50.144;8.428;2022-11-20T10:33:56;22.40;;;12.75;;
21420;SDS011;10871;50.144;8.428;2022-11-20T10:36:44;21.25;;;13.20;;
21420;SDS011;10871;50.144;8.428;2022-11-20T10:41:40;20.67;;;12.23;;
21420;SDS011;10871;50.144;8.428;2022-11-20T10:47:12;23.20;;;13.18;;
21420;SDS011;10871;50.144;8.428;2022-11-20T10:49:39;23.83;;;14.30;;
21420;SDS011;10871;50.144;8.428;2022-11-20T10:54:58;21.83;;;13.50;;
21420;SDS011;10871;50.144;8.428;2022-11-20T10:57:52;25.65;;;13.95;;
21420;SDS011;10871;50.144;8.428;2022-11-20T11:00:14;26.00;;;14.40;;
21420;SDS011;10871;50.144;8.428;2022-11-20T11:02:44;20.88;;;12.35;;
21420;SDS011;10871;50.144;8.428;2022-11-20T11:07:52;22.58;;;12.82;;
21420;SDS011;10871;50.144;8.428;2022-11-20T11:12:46;21.55;;;12.50;;
21420;SDS011;10871;50.144;8.428;2022-11-20T11:15:15;20.02;;;12.23;;
21420;SDS011;10871;50.144;8.428;2022-11-20T11:17:50;21.17;;;12.32;;
21420;SDS011;10871;50.144;8.428;2022-11-20T11:20:23;22.92;;;13.13;;
21420;SDS011;10871;50.144;8.428;2022-11-20T11:22:54;19.67;;;11.80;;
21420;SDS011;10871;50.144;8.428;2022-11-20T11:27:58;20.85;;;11.88;;
21420;SDS011;10871;50.144;8.428;2022-11-20T11:30:25;18.48;;;10.95;;
21420;SDS011;10871;50.144;8.428;2022-11-20T11:33:02;20.42;;;11.63;;
21420;SDS011;10871;50.144;8.428;2022-11-20T11:35:28;19.02;;;12.05;;
21420;SDS011;10871;50.144;8.428;2022-11-20T11:38:01;20.02;;;11.25;;
21420;SDS011;10871;50.144;8.428;2022-11-20T11:40:28;19.10;;;12.00;;
21420;SDS011;10871;50.144;8.428;2022-11-20T11:42:57;20.45;;;11.77;;
21420;SDS011;10871;50.144;8.428;2022-11-20T11:45:24;18.25;;;11.05;;
21420;SDS011;10871;50.144;8.428;2022-11-20T11:47:52;17.60;;;11.48;;
21420;SDS011;10871;50.144;8.428;2022-11-20T11:50:20;16.45;;;10.45;;
21420;SDS011;10871;50.144;8.428;2022-11-20T12:01:24;15.30;;;10.23;;
21420;SDS011;10871;50.144;8.428;2022-11-20T12:03:42;14.00;;;9.43;;
21420;SDS011;10871;50.144;8.428;2022-11-20T12:06:14;12.70;;;8.98;;
21420;SDS011;10871;50.144;8.428;2022-11-20T12:08:54;13.63;;;9.43;;
21420;SDS011;10871;50.144;8.428;2022-11-20T12:11:33;15.68;;;9.93;;
21420;SDS011;10871;50.144;8.428;2022-11-20T12:14:46;17.20;;;10.88;;
21420;SDS011;10871;50.144;8.428;2022-11-20T12:16:53;18.48;;;11.85;;
21420;SDS011;10871;50.144;8.428;2022-11-20T12:19:21;19.73;;;11.65;;
21420;SDS011;10871;50.144;8.428;2022-11-20T12:22:01;19.42;;;12.13;;
21420;SDS011;10871;50.144;8.428;2022-11-20T12:32:00;19.85;;;13.00;;
21420;SDS011;10871;50.144;8.428;2022-11-20T12:39:49;19.90;;;13.30;;
21420;SDS011;10871;50.144;8.428;2022-11-20T12:42:20;22.40;;;13.88;;
21420;SDS011;10871;50.144;8.428;2022-11-20T12:53:01;23.83;;;14.18;;
21420;SDS011;10871;50.144;8.428;2022-11-20T12:58:17;24.17;;;14.82;;
21420;SDS011;10871;50.144;8.428;2022-11-20T13:00:51;23.90;;;14.57;;
21420;SDS011;10871;50.144;8.428;2022-11-20T13:03:34;25.53;;;14.30;;
21420;SDS011;10871;50.144;8.428;2022-11-20T13:08:33;24.27;;;15.00;;
21420;SDS011;10871;50.144;8.428;2022-11-20T13:19:02;33.08;;;19.25;;
21420;SDS011;10871;50.144;8.428;2022-11-20T13:21:39;33.65;;;20.00;;
21420;SDS011;10871;50.144;8.428;2022-11-20T13:26:44;41.47;;;21.92;;
21420;SDS011;10871;50.144;8.428;2022-11-20T13:29:12;44.85;;;24.17;;
21420;SDS011;10871;50.144;8.428;2022-11-20T13:31:43;38.30;;;21.65;;
21420;SDS011;10871;50.144;8.428;2022-11-20T13:34:22;37.80;;;21.95;;
21420;SDS011;10871;50.144;8.428;2022-11-20T13:36:50;37.65;;;20.42;;
21420;SDS011;10871;50.144;8.428;2022-11-20T13:39:24;38.03;;;21.73;;
21420;SDS011;10871;50.144;8.428;2022-11-20T13:41:54;40.80;;;21.42;;
21420;SDS011;10871;50.144;8.428;2022-11-20T13:44:23;43.13;;;23.48;;
21420;SDS011;10871;50.144;8.428;2022-11-20T13:46:51;44.33;;;23.05;;
21420;SDS011;10871;50.144;8.428;2022-11-20T13:49:18;38.47;;;22.45;;
21420;SDS011;10871;50.144;8.428;2022-11-20T13:51:47;54.45;;;29.48;;
21420;SDS011;10871;50.144;8.428;2022-11-20T13:54:38;58.25;;;29.02;;
21420;SDS011;10871;50.144;8.428;2022-11-20T14:02:20;71.20;;;33.92;;
21420;SDS011;10871;50.144;8.428;2022-11-20T14:04:48;76.15;;;35.70;;
21420;SDS011;10871;50.144;8.428;2022-11-20T14:07:16;81.18;;;36.75;;
21420;SDS011;10871;50.144;8.428;2022-11-20T14:09:53;83.53;;;35.00;;
21420;SDS011;10871;50.144;8.428;2022-11-20T14:12:21;79.55;;;35.70;;
21420;SDS011;10871;50.144;8.428;2022-11-20T14:14:52;83.35;;;35.88;;
21420;SDS011;10871;50.144;8.428;2022-11-20T14:17:19;83.38;;;37.60;;
21420;SDS011;10871;50.144;8.428;2022-11-20T14:19:46;78.20;;;34.78;;
21420;SDS011;10871;50.144;8.428;2022-11-20T14:24:39;77.00;;;35.80;;
21420;SDS011;10871;50.144;8.428;2022-11-20T14:27:19;80.50;;;37.67;;
21420;SDS011;10871;50.144;8.428;2022-11-20T14:29:46;80.78;;;35.35;;
21420;SDS011;10871;50.144;8.428;2022-11-20T14:32:17;79.25;;;35.38;;
21420;SDS011;10871;50.144;8.428;2022-11-20T14:34:44;83.75;;;35.35;;
21420;SDS011;10871;50.144;8.428;2022-11-20T14:37:12;82.68;;;37.10;;
21420;SDS011;10871;50.144;8.428;2022-11-20T14:39:46;75.53;;;35.45;;
21420;SDS011;10871;50.144;8.428;2022-11-20T14:42:21;81.78;;;36.08;;
21420;SDS011;10871;50.144;8.428;2022-11-20T14:44:48;87.10;;;34.45;;
21420;SDS011;10871;50.144;8.428;2022-11-20T14:47:17;85.22;;;35.10;;
21420;SDS011;10871;50.144;8.428;2022-11-20T14:49:44;80.32;;;35.20;;
21420;SDS011;10871;50.144;8.428;2022-11-20T14:52:15;81.80;;;35.38;;
21420;SDS011;10871;50.144;8.428;2022-11-20T14:54:52;81.13;;;34.67;;
21420;SDS011;10871;50.144;8.428;2022-11-20T14:57:26;80.57;;;35.13;;
21420;SDS011;10871;50.144;8.428;2022-11-20T15:00:06;87.72;;;36.38;;
21420;SDS011;10871;50.144;8.428;2022-11-20T15:02:34;85.35;;;36.35;;
21420;SDS011;10871;50.144;8.428;2022-11-20T15:05:01;89.55;;;37.35;;
21420;SDS011;10871;50.144;8.428;2022-11-20T15:07:33;79.47;;;35.88;;
21420;SDS011;10871;50.144;8.428;2022-11-20T15:10:07;92.50;;;37.88;;
21420;SDS011;10871;50.144;8.428;2022-11-20T15:12:34;91.07;;;36.95;;
21420;SDS011;10871;50.144;8.428;2022-11-20T15:15:02;89.93;;;37.50;;
21420;SDS011;10871;50.144;8.428;2022-11-20T15:17:30;93.25;;;36.40;;
21420;SDS011;10871;50.144;8.428;2022-11-20T15:19:56;84.63;;;35.58;;
21420;SDS011;10871;50.144;8.428;2022-11-20T15:22:22;88.35;;;35.53;;
21420;SDS011;10871;50.144;8.428;2022-11-20T15:24:49;96.72;;;38.53;;
21420;SDS011;10871;50.144;8.428;2022-11-20T15:27:16;95.28;;;38.88;;
21420;SDS011;10871;50.144;8.428;2022-11-20T15:29:42;97.03;;;37.72;;
21420;SDS011;10871;50.144;8.428;2022-11-20T15:32:09;110.20;;;38.42;;
21420;SDS011;10871;50.144;8.428;2022-11-20T15:34:39;107.97;;;39.72;;
21420;SDS011;10871;50.144;8.428;2022-11-20T15:37:05;109.90;;;37.75;;
21420;SDS011;10871;50.144;8.428;2022-11-20T15:39:31;113.82;;;39.30;;
21420;SDS011;10871;50.144;8.428;2022-11-20T15:41:58;127.15;;;39.00;;
21420;SDS011;10871;50.144;8.428;2022-11-20T15:44:24;97.75;;;38.90;;
21420;SDS011;10871;50.144;8.428;2022-11-20T15:46:51;105.05;;;39.38;;
21420;SDS011;10871;50.144;8.428;2022-11-20T15:49:17;123.68;;;37.65;;
21420;SDS011;10871;50.144;8.428;2022-11-20T15:51:46;137.63;;;39.35;;
21420;SDS011;10871;50.144;8.428;2022-11-20T15:54:14;94.05;;;36.60;;
21420;SDS011;10871;50.144;8.428;2022-11-20T15:56:40;94.78;;;36.80;;
21420;SDS011;10871;50.144;8.428;2022-11-20T15:59:07;98.43;;;38.45;;
21420;SDS011;10871;50.144;8.428;2022-11-20T16:01:33;93.25;;;38.40;;
21420;SDS011;10871;50.144;8.428;2022-11-20T16:04:00;140.27;;;38.65;;
21420;SDS011;10871;50.144;8.428;2022-11-20T16:06:27;94.38;;;36.05;;
21420;SDS011;10871;50.144;8.428;2022-11-20T16:08:53;90.55;;;36.92;;